Hlavní strana
METAR-TAF:

METAR-TAF

Letiště :

Athens, Georgie, Spojené státy americké

zeměpisná šířka: 33-57-03N, zeměpisná délka: 083-19-41W, výška: 246 m

Aktuální stav počasí

Zpráva byla vytvořena před 16 minutami, v 17:51 UTC
Západoseverozápadní vítr 10 kt s nárazy do 16 kt
Teplota 8°C
Vlhkost vzduchu 36%
Tlak 1021 hPa
Viditelnost: 16.1 km
Jasno

METAR: KAHN 271751Z 30010G16KT 10SM CLR 08/M06 A3015 RMK AO2 SLP215 T00831061 10089 20017 58001

Čas: 13:07 (18:07 UTC)

Předpověď počasí

Zpráva byla vytvořena před 47 minutami, v 17:20 UTC
Předpověď platná od 27 v 18 UTC do 28 v 18 UTC
Západoseverozápadní vítr 10 kt
Viditelnost: 10 km
Jasno
Od 28 v 0000 UTC
Západní vítr 5 kt
Viditelnost: 10 km
Jasno
Od 28 v 1500 UTC
Západní vítr 10 kt
Viditelnost: 10 km
Polojasno ve výšce 5000 ft
Oblačno až skoro zataženo ve výšce 10000 ft

TAF: KAHN 271720Z 2718/2818 30010KT P6SM SKC FM280000 27005KT P6SM SKC FM281500 26010KT P6SM SCT050 BKN100

Stav a předpovědi počasí z více než 4 000 letišť (zprávy METAR a TAF).

Červené a žluté tečky na mapě představují dostupné meteorologické stanice.

Když kurzor umístíte na tečku, zobrazí se název stanice.

Pak kliknutím zobrazíte stav a předpověď počasí.

Chcete-li změnit mapu, kliknutím na zelené tlačítko se znaménkem +mapu přiblížíte, kliknutím na zelené tlačítko se znaménkem – mapu oddálíte a kliknutím na zelené šipky přejdete na sousední mapy.


METAR-TAF: